sensor_id;sensor_type;location;lat;lon;timestamp;P1;durP1;ratioP1;P2;durP2;ratioP2
16314;SDS011;8266;52.150;4.768;2023-07-30T00:01:38;10.35;;;2.50;;
16314;SDS011;8266;52.150;4.768;2023-07-30T00:04:05;9.13;;;2.90;;
16314;SDS011;8266;52.150;4.768;2023-07-30T00:06:32;5.80;;;2.20;;
16314;SDS011;8266;52.150;4.768;2023-07-30T00:09:01;22.83;;;3.72;;
16314;SDS011;8266;52.150;4.768;2023-07-30T00:11:29;9.95;;;2.47;;
16314;SDS011;8266;52.150;4.768;2023-07-30T00:13:56;7.97;;;2.00;;
16314;SDS011;8266;52.150;4.768;2023-07-30T00:16:23;10.90;;;2.97;;
16314;SDS011;8266;52.150;4.768;2023-07-30T00:18:51;7.65;;;2.88;;
16314;SDS011;8266;52.150;4.768;2023-07-30T00:21:18;10.63;;;2.38;;
16314;SDS011;8266;52.150;4.768;2023-07-30T00:23:45;10.18;;;2.67;;
16314;SDS011;8266;52.150;4.768;2023-07-30T00:26:14;11.38;;;2.92;;
16314;SDS011;8266;52.150;4.768;2023-07-30T00:28:41;11.23;;;2.42;;
16314;SDS011;8266;52.150;4.768;2023-07-30T00:31:08;10.60;;;3.05;;
16314;SDS011;8266;52.150;4.768;2023-07-30T00:33:35;9.30;;;2.22;;
16314;SDS011;8266;52.150;4.768;2023-07-30T00:36:02;10.43;;;3.10;;
16314;SDS011;8266;52.150;4.768;2023-07-30T00:38:29;12.73;;;3.10;;
16314;SDS011;8266;52.150;4.768;2023-07-30T00:40:56;11.70;;;2.95;;
16314;SDS011;8266;52.150;4.768;2023-07-30T00:43:24;13.95;;;3.30;;
16314;SDS011;8266;52.150;4.768;2023-07-30T00:45:51;10.95;;;2.55;;
16314;SDS011;8266;52.150;4.768;2023-07-30T00:48:18;9.93;;;2.75;;
16314;SDS011;8266;52.150;4.768;2023-07-30T00:50:46;7.35;;;3.17;;
16314;SDS011;8266;52.150;4.768;2023-07-30T00:53:14;11.25;;;2.92;;
16314;SDS011;8266;52.150;4.768;2023-07-30T00:55:42;11.10;;;2.88;;
16314;SDS011;8266;52.150;4.768;2023-07-30T00:58:10;9.10;;;2.58;;
16314;SDS011;8266;52.150;4.768;2023-07-30T01:00:39;10.15;;;2.65;;
16314;SDS011;8266;52.150;4.768;2023-07-30T01:03:07;10.27;;;2.88;;
16314;SDS011;8266;52.150;4.768;2023-07-30T01:05:34;14.07;;;2.75;;
16314;SDS011;8266;52.150;4.768;2023-07-30T01:08:01;11.60;;;3.15;;
16314;SDS011;8266;52.150;4.768;2023-07-30T01:10:28;8.32;;;2.33;;
16314;SDS011;8266;52.150;4.768;2023-07-30T01:12:58;6.85;;;2.45;;
16314;SDS011;8266;52.150;4.768;2023-07-30T01:15:27;12.70;;;2.83;;
16314;SDS011;8266;52.150;4.768;2023-07-30T01:17:56;13.27;;;2.47;;
16314;SDS011;8266;52.150;4.768;2023-07-30T01:20:23;11.20;;;2.78;;
16314;SDS011;8266;52.150;4.768;2023-07-30T01:22:51;12.95;;;3.00;;
16314;SDS011;8266;52.150;4.768;2023-07-30T01:25:18;12.93;;;3.10;;
16314;SDS011;8266;52.150;4.768;2023-07-30T01:27:50;8.02;;;2.30;;
16314;SDS011;8266;52.150;4.768;2023-07-30T01:30:21;9.88;;;3.03;;
16314;SDS011;8266;52.150;4.768;2023-07-30T01:32:52;9.38;;;2.67;;
16314;SDS011;8266;52.150;4.768;2023-07-30T01:35:19;9.05;;;2.58;;
16314;SDS011;8266;52.150;4.768;2023-07-30T01:37:48;8.30;;;2.47;;
16314;SDS011;8266;52.150;4.768;2023-07-30T01:40:18;7.95;;;2.50;;
16314;SDS011;8266;52.150;4.768;2023-07-30T01:42:45;11.30;;;2.75;;
16314;SDS011;8266;52.150;4.768;2023-07-30T01:45:12;12.23;;;3.35;;
16314;SDS011;8266;52.150;4.768;2023-07-30T01:47:39;10.70;;;3.30;;
16314;SDS011;8266;52.150;4.768;2023-07-30T01:50:06;12.60;;;3.30;;
16314;SDS011;8266;52.150;4.768;2023-07-30T01:52:34;8.50;;;2.25;;
16314;SDS011;8266;52.150;4.768;2023-07-30T01:55:01;7.95;;;2.50;;
16314;SDS011;8266;52.150;4.768;2023-07-30T01:57:29;9.98;;;2.85;;
16314;SDS011;8266;52.150;4.768;2023-07-30T01:59:56;13.85;;;3.47;;
16314;SDS011;8266;52.150;4.768;2023-07-30T02:02:23;10.80;;;3.20;;
16314;SDS011;8266;52.150;4.768;2023-07-30T02:04:50;11.15;;;2.70;;
16314;SDS011;8266;52.150;4.768;2023-07-30T02:07:17;19.83;;;4.22;;
16314;SDS011;8266;52.150;4.768;2023-07-30T02:09:44;10.35;;;3.38;;
16314;SDS011;8266;52.150;4.768;2023-07-30T02:12:11;11.68;;;3.00;;
16314;SDS011;8266;52.150;4.768;2023-07-30T02:14:39;13.10;;;2.70;;
16314;SDS011;8266;52.150;4.768;2023-07-30T02:17:06;12.75;;;2.85;;
16314;SDS011;8266;52.150;4.768;2023-07-30T02:19:33;11.52;;;2.88;;
16314;SDS011;8266;52.150;4.768;2023-07-30T02:22:00;12.23;;;3.10;;
16314;SDS011;8266;52.150;4.768;2023-07-30T02:24:27;13.70;;;2.83;;
16314;SDS011;8266;52.150;4.768;2023-07-30T02:26:54;11.75;;;3.38;;
16314;SDS011;8266;52.150;4.768;2023-07-30T02:29:21;13.25;;;3.20;;
16314;SDS011;8266;52.150;4.768;2023-07-30T02:31:49;10.05;;;2.78;;
16314;SDS011;8266;52.150;4.768;2023-07-30T02:34:16;10.75;;;3.25;;
16314;SDS011;8266;52.150;4.768;2023-07-30T02:36:43;10.30;;;2.58;;
16314;SDS011;8266;52.150;4.768;2023-07-30T02:39:10;14.32;;;2.85;;
16314;SDS011;8266;52.150;4.768;2023-07-30T02:41:37;10.07;;;2.53;;
16314;SDS011;8266;52.150;4.768;2023-07-30T02:44:04;9.02;;;2.58;;
16314;SDS011;8266;52.150;4.768;2023-07-30T02:46:31;9.90;;;2.78;;
16314;SDS011;8266;52.150;4.768;2023-07-30T02:48:59;8.15;;;2.45;;
16314;SDS011;8266;52.150;4.768;2023-07-30T02:51:26;9.52;;;2.95;;
16314;SDS011;8266;52.150;4.768;2023-07-30T02:53:54;12.75;;;3.25;;
16314;SDS011;8266;52.150;4.768;2023-07-30T02:56:23;8.85;;;2.33;;
16314;SDS011;8266;52.150;4.768;2023-07-30T02:58:50;10.30;;;2.55;;
16314;SDS011;8266;52.150;4.768;2023-07-30T03:01:17;7.03;;;2.72;;
16314;SDS011;8266;52.150;4.768;2023-07-30T03:03:44;9.88;;;3.13;;
16314;SDS011;8266;52.150;4.768;2023-07-30T03:06:13;10.13;;;2.67;;
16314;SDS011;8266;52.150;4.768;2023-07-30T03:08:41;16.88;;;3.90;;
16314;SDS011;8266;52.150;4.768;2023-07-30T03:11:08;9.25;;;2.38;;
16314;SDS011;8266;52.150;4.768;2023-07-30T03:13:35;14.57;;;3.38;;
16314;SDS011;8266;52.150;4.768;2023-07-30T03:16:02;12.55;;;2.58;;
16314;SDS011;8266;52.150;4.768;2023-07-30T03:18:29;10.27;;;2.58;;
16314;SDS011;8266;52.150;4.768;2023-07-30T03:20:57;12.38;;;3.00;;
16314;SDS011;8266;52.150;4.768;2023-07-30T03:23:26;12.82;;;2.90;;
16314;SDS011;8266;52.150;4.768;2023-07-30T03:25:54;11.43;;;2.50;;
16314;SDS011;8266;52.150;4.768;2023-07-30T03:28:21;6.10;;;2.58;;
16314;SDS011;8266;52.150;4.768;2023-07-30T03:30:48;11.50;;;2.72;;
16314;SDS011;8266;52.150;4.768;2023-07-30T03:33:14;11.50;;;3.10;;
16314;SDS011;8266;52.150;4.768;2023-07-30T03:35:41;9.68;;;2.55;;
16314;SDS011;8266;52.150;4.768;2023-07-30T03:38:08;11.88;;;2.80;;
16314;SDS011;8266;52.150;4.768;2023-07-30T03:40:37;10.38;;;2.47;;
16314;SDS011;8266;52.150;4.768;2023-07-30T03:43:04;12.15;;;2.90;;
16314;SDS011;8266;52.150;4.768;2023-07-30T03:45:30;8.80;;;2.80;;
16314;SDS011;8266;52.150;4.768;2023-07-30T03:47:58;7.93;;;2.40;;
16314;SDS011;8266;52.150;4.768;2023-07-30T03:50:25;7.55;;;2.30;;
16314;SDS011;8266;52.150;4.768;2023-07-30T03:52:52;7.15;;;2.15;;
16314;SDS011;8266;52.150;4.768;2023-07-30T03:55:19;9.75;;;2.80;;
16314;SDS011;8266;52.150;4.768;2023-07-30T03:57:48;6.80;;;2.53;;
16314;SDS011;8266;52.150;4.768;2023-07-30T04:00:15;10.23;;;2.42;;
16314;SDS011;8266;52.150;4.768;2023-07-30T04:02:42;7.00;;;2.78;;
16314;SDS011;8266;52.150;4.768;2023-07-30T04:05:08;9.45;;;2.45;;
16314;SDS011;8266;52.150;4.768;2023-07-30T04:07:35;5.68;;;1.95;;
16314;SDS011;8266;52.150;4.768;2023-07-30T04:10:02;7.57;;;2.28;;
16314;SDS011;8266;52.150;4.768;2023-07-30T04:12:30;9.25;;;2.95;;
16314;SDS011;8266;52.150;4.768;2023-07-30T04:14:58;6.32;;;2.33;;
16314;SDS011;8266;52.150;4.768;2023-07-30T04:17:25;5.78;;;2.00;;
16314;SDS011;8266;52.150;4.768;2023-07-30T04:19:52;5.95;;;1.85;;
16314;SDS011;8266;52.150;4.768;2023-07-30T04:22:19;5.93;;;1.63;;
16314;SDS011;8266;52.150;4.768;2023-07-30T04:24:46;5.15;;;1.17;;
16314;SDS011;8266;52.150;4.768;2023-07-30T04:27:13;5.68;;;1.48;;
16314;SDS011;8266;52.150;4.768;2023-07-30T04:29:40;3.53;;;1.13;;
16314;SDS011;8266;52.150;4.768;2023-07-30T04:32:08;3.33;;;1.10;;
16314;SDS011;8266;52.150;4.768;2023-07-30T04:34:35;4.15;;;1.30;;
16314;SDS011;8266;52.150;4.768;2023-07-30T04:37:02;4.60;;;1.15;;
16314;SDS011;8266;52.150;4.768;2023-07-30T04:39:29;5.47;;;1.00;;
16314;SDS011;8266;52.150;4.768;2023-07-30T04:41:56;4.65;;;1.00;;
16314;SDS011;8266;52.150;4.768;2023-07-30T04:44:23;5.15;;;1.13;;
16314;SDS011;8266;52.150;4.768;2023-07-30T04:46:50;4.93;;;1.30;;
16314;SDS011;8266;52.150;4.768;2023-07-30T04:49:18;2.55;;;1.20;;
16314;SDS011;8266;52.150;4.768;2023-07-30T04:51:45;6.85;;;1.10;;
16314;SDS011;8266;52.150;4.768;2023-07-30T04:54:12;3.80;;;1.45;;
16314;SDS011;8266;52.150;4.768;2023-07-30T04:56:39;3.20;;;1.15;;
16314;SDS011;8266;52.150;4.768;2023-07-30T04:59:06;4.55;;;1.45;;
16314;SDS011;8266;52.150;4.768;2023-07-30T05:01:33;4.35;;;1.20;;
16314;SDS011;8266;52.150;4.768;2023-07-30T05:04:00;4.57;;;0.90;;
16314;SDS011;8266;52.150;4.768;2023-07-30T05:06:29;4.55;;;1.00;;
16314;SDS011;8266;52.150;4.768;2023-07-30T05:08:55;5.07;;;1.38;;
16314;SDS011;8266;52.150;4.768;2023-07-30T05:11:22;4.93;;;1.20;;
16314;SDS011;8266;52.150;4.768;2023-07-30T05:13:49;6.70;;;1.40;;
16314;SDS011;8266;52.150;4.768;2023-07-30T05:16:16;5.78;;;1.88;;
16314;SDS011;8266;52.150;4.768;2023-07-30T05:18:43;7.75;;;2.15;;
16314;SDS011;8266;52.150;4.768;2023-07-30T05:21:10;7.22;;;2.35;;
16314;SDS011;8266;52.150;4.768;2023-07-30T05:23:39;7.53;;;1.88;;
16314;SDS011;8266;52.150;4.768;2023-07-30T05:26:06;8.90;;;2.80;;
16314;SDS011;8266;52.150;4.768;2023-07-30T05:28:33;8.15;;;2.10;;
16314;SDS011;8266;52.150;4.768;2023-07-30T05:30:59;11.20;;;2.92;;
16314;SDS011;8266;52.150;4.768;2023-07-30T05:33:27;13.20;;;2.53;;
16314;SDS011;8266;52.150;4.768;2023-07-30T05:35:53;8.57;;;2.72;;
16314;SDS011;8266;52.150;4.768;2023-07-30T05:38:20;8.82;;;2.28;;
16314;SDS011;8266;52.150;4.768;2023-07-30T05:40:49;10.32;;;2.45;;
16314;SDS011;8266;52.150;4.768;2023-07-30T05:43:16;11.02;;;2.85;;
16314;SDS011;8266;52.150;4.768;2023-07-30T05:45:43;8.00;;;2.15;;
16314;SDS011;8266;52.150;4.768;2023-07-30T05:48:10;10.48;;;2.85;;
16314;SDS011;8266;52.150;4.768;2023-07-30T05:50:37;9.95;;;2.80;;
16314;SDS011;8266;52.150;4.768;2023-07-30T05:53:04;6.43;;;2.08;;
16314;SDS011;8266;52.150;4.768;2023-07-30T05:55:31;6.70;;;2.10;;
16314;SDS011;8266;52.150;4.768;2023-07-30T05:57:59;9.98;;;2.90;;
16314;SDS011;8266;52.150;4.768;2023-07-30T06:00:26;12.85;;;2.72;;
16314;SDS011;8266;52.150;4.768;2023-07-30T06:02:53;7.82;;;2.38;;
16314;SDS011;8266;52.150;4.768;2023-07-30T06:05:20;9.32;;;2.67;;
16314;SDS011;8266;52.150;4.768;2023-07-30T06:07:47;9.68;;;2.30;;
16314;SDS011;8266;52.150;4.768;2023-07-30T06:10:16;6.97;;;2.30;;
16314;SDS011;8266;52.150;4.768;2023-07-30T06:12:43;8.25;;;2.33;;
16314;SDS011;8266;52.150;4.768;2023-07-30T06:15:11;11.32;;;2.78;;
16314;SDS011;8266;52.150;4.768;2023-07-30T06:17:38;8.73;;;2.45;;
16314;SDS011;8266;52.150;4.768;2023-07-30T06:20:05;8.93;;;2.70;;
16314;SDS011;8266;52.150;4.768;2023-07-30T06:22:33;14.27;;;2.78;;
16314;SDS011;8266;52.150;4.768;2023-07-30T06:25:00;8.95;;;2.45;;
16314;SDS011;8266;52.150;4.768;2023-07-30T06:27:27;10.48;;;2.60;;
16314;SDS011;8266;52.150;4.768;2023-07-30T06:29:54;9.35;;;2.65;;
16314;SDS011;8266;52.150;4.768;2023-07-30T06:32:22;7.15;;;2.35;;
16314;SDS011;8266;52.150;4.768;2023-07-30T06:34:50;6.97;;;2.05;;
16314;SDS011;8266;52.150;4.768;2023-07-30T06:37:17;7.25;;;2.38;;
16314;SDS011;8266;52.150;4.768;2023-07-30T06:39:43;9.52;;;2.42;;
16314;SDS011;8266;52.150;4.768;2023-07-30T06:42:11;7.00;;;2.40;;
16314;SDS011;8266;52.150;4.768;2023-07-30T06:44:38;11.10;;;2.45;;
16314;SDS011;8266;52.150;4.768;2023-07-30T06:47:05;9.30;;;3.13;;
16314;SDS011;8266;52.150;4.768;2023-07-30T06:49:33;5.22;;;2.05;;
16314;SDS011;8266;52.150;4.768;2023-07-30T06:52:00;7.32;;;2.13;;
16314;SDS011;8266;52.150;4.768;2023-07-30T06:54:28;9.43;;;2.55;;
16314;SDS011;8266;52.150;4.768;2023-07-30T06:56:55;7.80;;;2.55;;
16314;SDS011;8266;52.150;4.768;2023-07-30T06:59:23;9.23;;;2.38;;
16314;SDS011;8266;52.150;4.768;2023-07-30T07:01:50;8.73;;;2.30;;
16314;SDS011;8266;52.150;4.768;2023-07-30T07:04:17;14.48;;;2.55;;
16314;SDS011;8266;52.150;4.768;2023-07-30T07:06:46;8.07;;;2.53;;
16314;SDS011;8266;52.150;4.768;2023-07-30T07:09:13;8.77;;;2.95;;
16314;SDS011;8266;52.150;4.768;2023-07-30T07:11:40;10.25;;;2.60;;
16314;SDS011;8266;52.150;4.768;2023-07-30T07:14:06;6.38;;;1.95;;
16314;SDS011;8266;52.150;4.768;2023-07-30T07:16:34;9.75;;;2.28;;
16314;SDS011;8266;52.150;4.768;2023-07-30T07:19:00;11.85;;;2.65;;
16314;SDS011;8266;52.150;4.768;2023-07-30T07:21:27;6.18;;;2.10;;
16314;SDS011;8266;52.150;4.768;2023-07-30T07:23:56;7.10;;;1.92;;
16314;SDS011;8266;52.150;4.768;2023-07-30T07:26:22;5.82;;;1.77;;
16314;SDS011;8266;52.150;4.768;2023-07-30T07:28:49;9.23;;;1.80;;
16314;SDS011;8266;52.150;4.768;2023-07-30T07:31:16;7.90;;;1.95;;
16314;SDS011;8266;52.150;4.768;2023-07-30T07:33:44;6.10;;;1.83;;
16314;SDS011;8266;52.150;4.768;2023-07-30T07:36:11;5.60;;;1.58;;
16314;SDS011;8266;52.150;4.768;2023-07-30T07:38:39;5.72;;;1.38;;
16314;SDS011;8266;52.150;4.768;2023-07-30T07:41:13;3.95;;;1.67;;
16314;SDS011;8266;52.150;4.768;2023-07-30T07:43:41;6.35;;;1.63;;
16314;SDS011;8266;52.150;4.768;2023-07-30T07:46:08;5.60;;;1.77;;
16314;SDS011;8266;52.150;4.768;2023-07-30T07:48:38;7.05;;;1.55;;
16314;SDS011;8266;52.150;4.768;2023-07-30T07:51:05;6.82;;;1.98;;
16314;SDS011;8266;52.150;4.768;2023-07-30T07:53:32;6.40;;;1.88;;
16314;SDS011;8266;52.150;4.768;2023-07-30T07:55:59;4.47;;;1.48;;
16314;SDS011;8266;52.150;4.768;2023-07-30T07:58:27;8.15;;;1.60;;
16314;SDS011;8266;52.150;4.768;2023-07-30T08:00:54;5.88;;;1.60;;
16314;SDS011;8266;52.150;4.768;2023-07-30T08:03:21;6.35;;;1.65;;
16314;SDS011;8266;52.150;4.768;2023-07-30T08:05:48;3.00;;;1.20;;
16314;SDS011;8266;52.150;4.768;2023-07-30T08:08:16;7.32;;;2.00;;
16314;SDS011;8266;52.150;4.768;2023-07-30T08:10:43;4.25;;;1.10;;
16314;SDS011;8266;52.150;4.768;2023-07-30T08:13:11;4.38;;;1.45;;
16314;SDS011;8266;52.150;4.768;2023-07-30T08:15:40;4.72;;;1.40;;
16314;SDS011;8266;52.150;4.768;2023-07-30T08:18:07;5.45;;;1.55;;
16314;SDS011;8266;52.150;4.768;2023-07-30T08:20:34;3.92;;;1.23;;
16314;SDS011;8266;52.150;4.768;2023-07-30T08:23:01;5.20;;;1.42;;
16314;SDS011;8266;52.150;4.768;2023-07-30T08:25:29;4.97;;;1.42;;
16314;SDS011;8266;52.150;4.768;2023-07-30T08:27:56;6.15;;;1.88;;
16314;SDS011;8266;52.150;4.768;2023-07-30T08:30:23;4.30;;;1.70;;
16314;SDS011;8266;52.150;4.768;2023-07-30T08:32:51;5.82;;;1.88;;
16314;SDS011;8266;52.150;4.768;2023-07-30T08:35:18;4.78;;;1.42;;
16314;SDS011;8266;52.150;4.768;2023-07-30T08:37:45;2.92;;;1.23;;
16314;SDS011;8266;52.150;4.768;2023-07-30T08:40:11;7.65;;;1.85;;
16314;SDS011;8266;52.150;4.768;2023-07-30T08:42:40;6.63;;;1.45;;
16314;SDS011;8266;52.150;4.768;2023-07-30T08:45:08;4.82;;;1.42;;
16314;SDS011;8266;52.150;4.768;2023-07-30T08:47:35;7.43;;;2.05;;
16314;SDS011;8266;52.150;4.768;2023-07-30T08:50:03;4.82;;;1.73;;
16314;SDS011;8266;52.150;4.768;2023-07-30T08:52:31;4.28;;;1.20;;
16314;SDS011;8266;52.150;4.768;2023-07-30T08:55:01;3.95;;;1.23;;
16314;SDS011;8266;52.150;4.768;2023-07-30T08:57:29;6.68;;;1.88;;
16314;SDS011;8266;52.150;4.768;2023-07-30T09:00:00;8.65;;;2.38;;
16314;SDS011;8266;52.150;4.768;2023-07-30T09:02:30;6.47;;;1.55;;
16314;SDS011;8266;52.150;4.768;2023-07-30T09:05:01;7.30;;;2.10;;
16314;SDS011;8266;52.150;4.768;2023-07-30T09:07:30;6.38;;;1.75;;
16314;SDS011;8266;52.150;4.768;2023-07-30T09:09:57;5.15;;;1.55;;
16314;SDS011;8266;52.150;4.768;2023-07-30T09:12:25;6.80;;;1.77;;
16314;SDS011;8266;52.150;4.768;2023-07-30T09:14:54;4.55;;;1.35;;
16314;SDS011;8266;52.150;4.768;2023-07-30T09:17:21;6.15;;;1.95;;
16314;SDS011;8266;52.150;4.768;2023-07-30T09:19:49;5.75;;;1.60;;
16314;SDS011;8266;52.150;4.768;2023-07-30T09:22:19;3.38;;;1.30;;
16314;SDS011;8266;52.150;4.768;2023-07-30T09:24:48;8.23;;;2.10;;
16314;SDS011;8266;52.150;4.768;2023-07-30T09:27:19;8.40;;;1.65;;
16314;SDS011;8266;52.150;4.768;2023-07-30T09:29:50;5.93;;;1.45;;
16314;SDS011;8266;52.150;4.768;2023-07-30T09:32:18;5.22;;;1.45;;
16314;SDS011;8266;52.150;4.768;2023-07-30T09:34:46;4.50;;;1.33;;
16314;SDS011;8266;52.150;4.768;2023-07-30T09:37:13;5.47;;;1.33;;
16314;SDS011;8266;52.150;4.768;2023-07-30T09:39:41;4.10;;;1.10;;
16314;SDS011;8266;52.150;4.768;2023-07-30T09:42:09;5.18;;;1.00;;
16314;SDS011;8266;52.150;4.768;2023-07-30T09:44:37;6.10;;;1.48;;
16314;SDS011;8266;52.150;4.768;2023-07-30T09:47:05;2.85;;;1.20;;
16314;SDS011;8266;52.150;4.768;2023-07-30T09:49:35;3.22;;;1.13;;
16314;SDS011;8266;52.150;4.768;2023-07-30T09:52:03;4.50;;;1.33;;
16314;SDS011;8266;52.150;4.768;2023-07-30T09:54:30;4.93;;;1.40;;
16314;SDS011;8266;52.150;4.768;2023-07-30T09:56:58;5.63;;;1.13;;
16314;SDS011;8266;52.150;4.768;2023-07-30T09:59:26;4.30;;;1.20;;
16314;SDS011;8266;52.150;4.768;2023-07-30T10:01:53;4.60;;;1.15;;
16314;SDS011;8266;52.150;4.768;2023-07-30T10:04:21;6.28;;;1.52;;
16314;SDS011;8266;52.150;4.768;2023-07-30T10:06:50;2.45;;;1.02;;
16314;SDS011;8266;52.150;4.768;2023-07-30T10:09:30;5.32;;;1.10;;
16314;SDS011;8266;52.150;4.768;2023-07-30T10:12:03;3.38;;;1.25;;
16314;SDS011;8266;52.150;4.768;2023-07-30T10:14:33;5.70;;;1.17;;
16314;SDS011;8266;52.150;4.768;2023-07-30T10:17:01;3.85;;;1.25;;
16314;SDS011;8266;52.150;4.768;2023-07-30T10:19:28;8.35;;;1.60;;
16314;SDS011;8266;52.150;4.768;2023-07-30T10:21:57;3.58;;;1.25;;
16314;SDS011;8266;52.150;4.768;2023-07-30T10:24:55;4.07;;;1.35;;
16314;SDS011;8266;52.150;4.768;2023-07-30T10:27:23;4.75;;;1.10;;
16314;SDS011;8266;52.150;4.768;2023-07-30T10:30:07;3.78;;;1.38;;
16314;SDS011;8266;52.150;4.768;2023-07-30T10:32:39;7.18;;;1.45;;
16314;SDS011;8266;52.150;4.768;2023-07-30T10:35:06;5.03;;;0.93;;
16314;SDS011;8266;52.150;4.768;2023-07-30T10:37:34;4.72;;;1.27;;
16314;SDS011;8266;52.150;4.768;2023-07-30T10:40:01;5.03;;;1.15;;
16314;SDS011;8266;52.150;4.768;2023-07-30T10:42:43;3.97;;;1.10;;
16314;SDS011;8266;52.150;4.768;2023-07-30T10:45:12;4.95;;;1.40;;
16314;SDS011;8266;52.150;4.768;2023-07-30T10:47:40;3.35;;;1.30;;
16314;SDS011;8266;52.150;4.768;2023-07-30T10:50:08;6.95;;;1.70;;
16314;SDS011;8266;52.150;4.768;2023-07-30T10:52:37;3.90;;;1.00;;
16314;SDS011;8266;52.150;4.768;2023-07-30T10:55:04;4.53;;;1.65;;
16314;SDS011;8266;52.150;4.768;2023-07-30T10:57:31;3.55;;;0.90;;
16314;SDS011;8266;52.150;4.768;2023-07-30T10:59:58;6.13;;;1.20;;
16314;SDS011;8266;52.150;4.768;2023-07-30T11:02:28;4.78;;;1.27;;
16314;SDS011;8266;52.150;4.768;2023-07-30T11:04:55;5.82;;;1.25;;
16314;SDS011;8266;52.150;4.768;2023-07-30T11:07:22;3.90;;;1.23;;
16314;SDS011;8266;52.150;4.768;2023-07-30T11:09:58;5.70;;;1.35;;
16314;SDS011;8266;52.150;4.768;2023-07-30T11:12:26;4.63;;;1.20;;
16314;SDS011;8266;52.150;4.768;2023-07-30T11:14:59;3.78;;;1.23;;
16314;SDS011;8266;52.150;4.768;2023-07-30T11:17:27;5.05;;;1.65;;
16314;SDS011;8266;52.150;4.768;2023-07-30T11:19:55;4.28;;;1.00;;
16314;SDS011;8266;52.150;4.768;2023-07-30T11:22:28;4.95;;;1.10;;
16314;SDS011;8266;52.150;4.768;2023-07-30T11:24:56;4.40;;;1.33;;
16314;SDS011;8266;52.150;4.768;2023-07-30T11:27:23;4.65;;;1.10;;
16314;SDS011;8266;52.150;4.768;2023-07-30T11:29:54;4.18;;;0.88;;
16314;SDS011;8266;52.150;4.768;2023-07-30T11:32:21;3.55;;;0.95;;
16314;SDS011;8266;52.150;4.768;2023-07-30T11:34:51;2.88;;;0.90;;
16314;SDS011;8266;52.150;4.768;2023-07-30T11:37:19;2.85;;;1.23;;
16314;SDS011;8266;52.150;4.768;2023-07-30T11:39:46;3.85;;;1.00;;
16314;SDS011;8266;52.150;4.768;2023-07-30T11:42:14;3.95;;;1.02;;
16314;SDS011;8266;52.150;4.768;2023-07-30T11:44:41;3.17;;;0.93;;
16314;SDS011;8266;52.150;4.768;2023-07-30T11:47:08;4.38;;;1.23;;
16314;SDS011;8266;52.150;4.768;2023-07-30T11:49:35;3.13;;;1.35;;
16314;SDS011;8266;52.150;4.768;2023-07-30T11:52:07;4.68;;;0.70;;
16314;SDS011;8266;52.150;4.768;2023-07-30T11:54:36;5.45;;;1.40;;
16314;SDS011;8266;52.150;4.768;2023-07-30T11:57:03;6.03;;;1.15;;
16314;SDS011;8266;52.150;4.768;2023-07-30T11:59:30;5.65;;;1.00;;
16314;SDS011;8266;52.150;4.768;2023-07-30T12:01:58;4.30;;;0.85;;
16314;SDS011;8266;52.150;4.768;2023-07-30T12:04:24;2.88;;;0.80;;
16314;SDS011;8266;52.150;4.768;2023-07-30T12:06:56;3.05;;;0.88;;
16314;SDS011;8266;52.150;4.768;2023-07-30T12:09:24;8.52;;;1.15;;
16314;SDS011;8266;52.150;4.768;2023-07-30T12:11:52;4.93;;;1.25;;
16314;SDS011;8266;52.150;4.768;2023-07-30T12:14:21;4.15;;;0.90;;
16314;SDS011;8266;52.150;4.768;2023-07-30T12:16:55;3.63;;;1.20;;
16314;SDS011;8266;52.150;4.768;2023-07-30T12:19:22;3.00;;;0.82;;
16314;SDS011;8266;52.150;4.768;2023-07-30T12:21:49;3.30;;;0.90;;
16314;SDS011;8266;52.150;4.768;2023-07-30T12:24:16;3.65;;;0.88;;
16314;SDS011;8266;52.150;4.768;2023-07-30T12:26:44;4.18;;;0.90;;
16314;SDS011;8266;52.150;4.768;2023-07-30T12:29:11;3.45;;;1.05;;
16314;SDS011;8266;52.150;4.768;2023-07-30T12:31:38;4.55;;;1.23;;
16314;SDS011;8266;52.150;4.768;2023-07-30T12:34:05;3.95;;;1.00;;
16314;SDS011;8266;52.150;4.768;2023-07-30T12:36:32;2.97;;;0.93;;
16314;SDS011;8266;52.150;4.768;2023-07-30T12:38:59;2.08;;;0.65;;
16314;SDS011;8266;52.150;4.768;2023-07-30T12:41:26;2.75;;;1.10;;
16314;SDS011;8266;52.150;4.768;2023-07-30T12:43:54;4.07;;;1.15;;
16314;SDS011;8266;52.150;4.768;2023-07-30T12:46:22;1.90;;;0.70;;
16314;SDS011;8266;52.150;4.768;2023-07-30T12:48:51;2.85;;;0.80;;
16314;SDS011;8266;52.150;4.768;2023-07-30T12:51:18;2.53;;;0.90;;
16314;SDS011;8266;52.150;4.768;2023-07-30T12:53:45;1.73;;;0.70;;
16314;SDS011;8266;52.150;4.768;2023-07-30T12:56:12;2.80;;;0.85;;
16314;SDS011;8266;52.150;4.768;2023-07-30T12:58:40;2.65;;;0.90;;
16314;SDS011;8266;52.150;4.768;2023-07-30T13:01:08;5.93;;;1.08;;
16314;SDS011;8266;52.150;4.768;2023-07-30T13:03:35;3.88;;;1.13;;
16314;SDS011;8266;52.150;4.768;2023-07-30T13:06:02;5.20;;;1.17;;
16314;SDS011;8266;52.150;4.768;2023-07-30T13:08:29;5.38;;;1.48;;
16314;SDS011;8266;52.150;4.768;2023-07-30T13:10:56;2.85;;;0.90;;
16314;SDS011;8266;52.150;4.768;2023-07-30T13:13:23;4.20;;;1.30;;
16314;SDS011;8266;52.150;4.768;2023-07-30T13:15:49;3.08;;;1.00;;
16314;SDS011;8266;52.150;4.768;2023-07-30T13:18:18;6.10;;;1.45;;
16314;SDS011;8266;52.150;4.768;2023-07-30T13:20:45;2.35;;;1.00;;
16314;SDS011;8266;52.150;4.768;2023-07-30T13:23:12;4.85;;;1.02;;
16314;SDS011;8266;52.150;4.768;2023-07-30T13:25:39;5.25;;;1.33;;
16314;SDS011;8266;52.150;4.768;2023-07-30T13:28:06;5.07;;;0.90;;
16314;SDS011;8266;52.150;4.768;2023-07-30T13:30:33;4.18;;;1.20;;
16314;SDS011;8266;52.150;4.768;2023-07-30T13:33:00;2.60;;;0.80;;
16314;SDS011;8266;52.150;4.768;2023-07-30T13:35:29;3.80;;;1.23;;
16314;SDS011;8266;52.150;4.768;2023-07-30T13:37:55;7.25;;;1.30;;
16314;SDS011;8266;52.150;4.768;2023-07-30T13:40:22;5.10;;;1.20;;
16314;SDS011;8266;52.150;4.768;2023-07-30T13:42:49;4.60;;;1.20;;
16314;SDS011;8266;52.150;4.768;2023-07-30T13:45:16;4.45;;;1.13;;
16314;SDS011;8266;52.150;4.768;2023-07-30T13:47:43;3.80;;;1.20;;
16314;SDS011;8266;52.150;4.768;2023-07-30T13:50:10;4.53;;;1.23;;
16314;SDS011;8266;52.150;4.768;2023-07-30T13:52:39;4.80;;;1.20;;
16314;SDS011;8266;52.150;4.768;2023-07-30T13:55:06;4.32;;;1.65;;
16314;SDS011;8266;52.150;4.768;2023-07-30T13:57:33;5.25;;;1.40;;
16314;SDS011;8266;52.150;4.768;2023-07-30T14:00:00;6.85;;;1.88;;
16314;SDS011;8266;52.150;4.768;2023-07-30T14:02:27;5.00;;;1.60;;
16314;SDS011;8266;52.150;4.768;2023-07-30T14:04:54;4.78;;;1.50;;
16314;SDS011;8266;52.150;4.768;2023-07-30T14:07:21;3.70;;;1.77;;
16314;SDS011;8266;52.150;4.768;2023-07-30T14:09:49;4.00;;;1.70;;
16314;SDS011;8266;52.150;4.768;2023-07-30T14:12:16;3.20;;;1.23;;
16314;SDS011;8266;52.150;4.768;2023-07-30T14:14:43;3.92;;;1.33;;
16314;SDS011;8266;52.150;4.768;2023-07-30T14:17:10;6.10;;;1.48;;
16314;SDS011;8266;52.150;4.768;2023-07-30T14:19:37;6.10;;;1.75;;
16314;SDS011;8266;52.150;4.768;2023-07-30T14:22:04;5.10;;;1.60;;
16314;SDS011;8266;52.150;4.768;2023-07-30T14:24:32;4.93;;;1.50;;
16314;SDS011;8266;52.150;4.768;2023-07-30T14:27:01;3.38;;;1.35;;
16314;SDS011;8266;52.150;4.768;2023-07-30T14:29:27;3.83;;;1.45;;
16314;SDS011;8266;52.150;4.768;2023-07-30T14:31:54;4.80;;;1.60;;
16314;SDS011;8266;52.150;4.768;2023-07-30T14:34:21;8.45;;;1.60;;
16314;SDS011;8266;52.150;4.768;2023-07-30T14:36:48;4.70;;;1.40;;
16314;SDS011;8266;52.150;4.768;2023-07-30T14:39:15;6.90;;;2.53;;
16314;SDS011;8266;52.150;4.768;2023-07-30T14:41:42;7.88;;;2.00;;
16314;SDS011;8266;52.150;4.768;2023-07-30T14:44:10;4.68;;;1.73;;
16314;SDS011;8266;52.150;4.768;2023-07-30T14:46:37;5.38;;;1.83;;
16314;SDS011;8266;52.150;4.768;2023-07-30T14:49:04;9.68;;;2.30;;
16314;SDS011;8266;52.150;4.768;2023-07-30T14:51:31;6.97;;;1.70;;
16314;SDS011;8266;52.150;4.768;2023-07-30T14:53:58;6.35;;;2.03;;
16314;SDS011;8266;52.150;4.768;2023-07-30T14:56:25;6.28;;;1.63;;
16314;SDS011;8266;52.150;4.768;2023-07-30T14:58:52;5.07;;;1.77;;
16314;SDS011;8266;52.150;4.768;2023-07-30T15:01:21;5.72;;;1.83;;